Alan T — WDC9571 — position and weather

sailwx.info

Track history (hours):
 
Tides and Currents Weather Stations Pressure Air Temp Water Temp Dewpoint Dewpoint Depression Visibility Wind Speed Wind Dir Waves Ship Positions

Alan T

Owner: SO CAL SHIP SERVICES, INC, TERMINAL ISLAND, CA. More information available from US FCC via Universal Licensing System and Coast Guard Vessel Documentation Center.

Last reported at 2017-Nov-19 08:00 UTC. Time now 2017-Nov-19 08:21 UTC.
Position N 34°20' W 119°34'.

Length 30 m; draft 2.5 m.

Type: Ship (hazmat cat B). MMSI: 367104060.

Date/timePositionNaut miles runAvg speedWind from/ knotsBaromVisibWave heightAir tempDewpointWater temp
2017-Nov-19 08:00N 34°20' W 119°34'0 0.0
2017-Nov-19 07:30N 34°20' W 119°34'0 0.0
2017-Nov-19 07:00N 34°20' W 119°34'0 0.0
2017-Nov-19 06:30N 34°20' W 119°34'0 0.0
2017-Nov-19 06:00N 34°20' W 119°34'0 0.0
2017-Nov-19 05:30N 34°20' W 119°34'0 0.0
2017-Nov-19 05:00N 34°20' W 119°34'0 0.0
2017-Nov-19 04:29N 34°20' W 119°34'0 0.0
2017-Nov-19 04:00N 34°20' W 119°34'0 0.0
2017-Nov-19 03:29N 34°20' W 119°34'0 0.0
2017-Nov-19 03:00N 34°20' W 119°34'2 3.6
2017-Nov-19 02:27N 34°21' W 119°32'2 4.3
2017-Nov-19 02:00N 34°23' W 119°31'1 1.3
2017-Nov-19 01:30N 34°22' W 119°30'0 0.0
2017-Nov-19 01:00N 34°22' W 119°30'3 6.3
2017-Nov-19 00:31N 34°21' W 119°33'3 5.7
2017-Nov-19 00:00N 34°20' W 119°36'0 0.2
2017-Nov-18 23:30N 34°20' W 119°36'1 1.0
2017-Nov-18 23:00N 34°20' W 119°37'3 5.9
2017-Nov-18 22:30N 34°23' W 119°37'4 7.5
2017-Nov-18 21:59N 34°24' W 119°42'0 0.0
2017-Nov-18 21:30N 34°24' W 119°42'0 0.0
2017-Nov-18 21:00N 34°24' W 119°42'0 0.0
2017-Nov-18 20:28N 34°24' W 119°42'4 9.0
2017-Nov-18 20:00N 34°22' W 119°37'2 4.6
2017-Nov-18 19:28N 34°20' W 119°36'510.5
2017-Nov-18 19:00N 34°22' W 119°31'5 9.9
2017-Nov-18 18:31N 34°20' W 119°36'611.1
2017-Nov-18 17:58N 34°20' W 119°29'3 7.1
2017-Nov-18 17:30N 34°20' W 119°33'3 5.1
2017-Nov-18 16:59N 34°20' W 119°36'0 0.9
2017-Nov-18 16:30N 34°20' W 119°37'3 5.7
2017-Nov-18 16:00N 34°20' W 119°33'2 4.5
2017-Nov-18 15:30N 34°22' W 119°32'510.1
2017-Nov-18 15:00N 34°20' W 119°37'612.4
2017-Nov-18 14:31N 34°23' W 119°31'0 0.6
2017-Nov-18 13:59N 34°23' W 119°30'1 1.4
2017-Nov-18 13:30N 34°22' W 119°30'0 0.0
2017-Nov-18 13:00N 34°22' W 119°30'0 0.0
2017-Nov-18 12:28N 34°22' W 119°30'0 0.0
2017-Nov-18 11:58N 34°22' W 119°30'0 0.0
2017-Nov-18 11:28N 34°22' W 119°30'0 0.0
2017-Nov-18 10:59N 34°22' W 119°30'0 0.0
2017-Nov-18 10:27N 34°22' W 119°30'0 0.0
2017-Nov-18 09:59N 34°22' W 119°30'0 0.0
2017-Nov-18 09:23N 34°22' W 119°30'0 0.0
2017-Nov-18 08:56N 34°22' W 119°30'0 0.0
2017-Nov-18 08:25N 34°22' W 119°30'0 0.0
2017-Nov-18 08:00N 34°22' W 119°30'0 0.0
2017-Nov-18 07:30N 34°22' W 119°30'0 0.0
2017-Nov-18 07:00N 34°22' W 119°30'0 0.0
2017-Nov-18 06:29N 34°22' W 119°30'0 0.0
2017-Nov-18 05:59N 34°22' W 119°30'0 0.0
2017-Nov-18 05:30N 34°22' W 119°30'0 0.0
2017-Nov-18 04:57N 34°22' W 119°30'0 0.0
2017-Nov-18 04:28N 34°22' W 119°30'0 0.0
2017-Nov-18 03:57N 34°22' W 119°30'0 0.0
2017-Nov-18 03:29N 34°22' W 119°30'0 0.0
2017-Nov-18 03:00N 34°22' W 119°30'0 0.0
2017-Nov-18 02:30N 34°22' W 119°30'0 0.0
2017-Nov-18 01:56N 34°22' W 119°30'0 0.1
2017-Nov-18 01:26N 34°23' W 119°30'0 0.0
2017-Nov-18 01:00N 34°23' W 119°30'0 0.0
2017-Nov-18 00:30N 34°23' W 119°30'0 0.0
2017-Nov-18 00:00N 34°22' W 119°30'5 8.9
2017-Nov-17 23:29N 34°20' W 119°35'0 0.4
2017-Nov-17 23:00N 34°20' W 119°35'1 1.7
2017-Nov-17 22:30N 34°20' W 119°34'0 0.0
2017-Nov-17 22:00N 34°20' W 119°34'0 0.0
2017-Nov-17 21:30N 34°20' W 119°34'0 0.0
2017-Nov-17 21:00N 34°20' W 119°34'4 7.5
2017-Nov-17 20:29N 34°23' W 119°30'613.0
2017-Nov-17 20:00N 34°20' W 119°37'0 0.4
2017-Nov-17 19:30N 34°20' W 119°37'3 5.7
2017-Nov-17 19:00N 34°20' W 119°34'0 0.0
2017-Nov-17 18:30N 34°20' W 119°34'3 5.0
2017-Nov-17 17:59N 34°20' W 119°37'0 0.0
2017-Nov-17 17:30N 34°20' W 119°37'0 0.9
2017-Nov-17 17:00N 34°20' W 119°37'510.7
2017-Nov-17 16:31N 34°22' W 119°31'1 2.5
2017-Nov-17 16:00N 34°23' W 119°30'4 7.3
2017-Nov-17 15:29N 34°20' W 119°33'3 6.7
2017-Nov-17 15:01N 34°20' W 119°37'612.7
2017-Nov-17 14:30N 34°23' W 119°30'0 0.4
2017-Nov-17 14:00N 34°23' W 119°31'0 0.5
2017-Nov-17 13:29N 34°23' W 119°30'3 7.0
2017-Nov-17 13:00N 34°20' W 119°33'1 1.6
2017-Nov-17 12:29N 34°20' W 119°34'0 0.0
2017-Nov-17 12:00N 34°20' W 119°34'0 0.0
2017-Nov-17 11:30N 34°20' W 119°34'0 0.0
2017-Nov-17 10:57N 34°20' W 119°34'0 0.0
2017-Nov-17 10:30N 34°20' W 119°34'0 0.0
2017-Nov-17 10:00N 34°20' W 119°34'0 0.0
2017-Nov-17 09:30N 34°20' W 119°34'0 0.0
2017-Nov-17 09:00N 34°20' W 119°34'0 0.0
2017-Nov-17 08:30N 34°20' W 119°34'0 0.0
2017-Nov-17 07:59N 34°20' W 119°34'0 0.0
2017-Nov-17 07:30N 34°20' W 119°34'0 0.0
2017-Nov-17 06:57N 34°20' W 119°34'0 0.0
2017-Nov-17 06:30N 34°20' W 119°34'0 0.0
2017-Nov-17 06:00N 34°20' W 119°34'0 0.0
2017-Nov-17 05:30N 34°20' W 119°34'2 4.1
2017-Nov-17 05:00N 34°20' W 119°36'5 8.6
2017-Nov-17 04:22N 34°23' W 119°31'0 0.1
2017-Nov-17 03:53N 34°23' W 119°31'0 1.0
2017-Nov-17 03:30N 34°23' W 119°30'713.7
2017-Nov-17 03:01N 34°20' W 119°38'611.5
2017-Nov-17 02:29N 34°22' W 119°31'1 1.0
2017-Nov-17 01:59N 34°23' W 119°31'0 0.5
2017-Nov-17 01:30N 34°23' W 119°31'611.4
2017-Nov-17 01:00N 34°20' W 119°36'2 3.7
2017-Nov-17 00:30N 34°20' W 119°34'4 8.2
2017-Nov-16 23:59N 34°23' W 119°30'5 9.5
2017-Nov-16 23:30N 34°20' W 119°35'2 4.8
2017-Nov-16 23:00N 34°20' W 119°37'1 1.6
2017-Nov-16 22:30N 34°20' W 119°36'2 4.4
2017-Nov-16 22:00N 34°20' W 119°34'3 5.1
2017-Nov-16 21:30N 34°20' W 119°37'0 0.9
2017-Nov-16 21:00N 34°20' W 119°36'0 0.8
2017-Nov-16 20:30N 34°20' W 119°37'2 5.0
2017-Nov-16 20:00N 34°20' W 119°34'4 7.0
2017-Nov-16 19:30N 34°20' W 119°38'0 1.0
2017-Nov-16 19:00N 34°20' W 119°37'0 0.6
2017-Nov-16 18:30N 34°20' W 119°38'3 6.4
2017-Nov-16 17:59N 34°20' W 119°34'0 0.0
2017-Nov-16 17:30N 34°20' W 119°34'0 0.0
2017-Nov-16 17:00N 34°20' W 119°34'4 8.2
2017-Nov-16 16:31N 34°23' W 119°30'0 0.0
2017-Nov-16 16:00N 34°23' W 119°30'3 6.7
2017-Nov-16 15:31N 34°20' W 119°33'3 5.6
2017-Nov-16 15:00N 34°20' W 119°36'611.2
2017-Nov-16 14:30N 34°23' W 119°30'0 0.5
2017-Nov-16 14:00N 34°23' W 119°31'0 0.3
2017-Nov-16 13:30N 34°23' W 119°31'611.2
2017-Nov-16 13:00N 34°20' W 119°36'2 4.2
2017-Nov-16 12:30N 34°20' W 119°34'0 0.0
2017-Nov-16 11:59N 34°20' W 119°34'0 0.3
2017-Nov-16 11:31N 34°20' W 119°34'3 6.4
2017-Nov-16 10:58N 34°20' W 119°38'0 0.0
2017-Nov-16 10:28N 34°20' W 119°38'0 1.0
2017-Nov-16 10:00N 34°20' W 119°37'0 0.1
2017-Nov-16 09:30N 34°20' W 119°37'3 6.0
2017-Nov-16 09:00N 34°20' W 119°34'0 0.0
2017-Nov-16 08:28N 34°20' W 119°34'0 0.3
2017-Nov-16 08:00N 34°20' W 119°34'0 0.0
2017-Nov-16 07:29N 34°20' W 119°34'0 0.0
2017-Nov-16 07:00N 34°20' W 119°34'0 0.0
2017-Nov-16 06:28N 34°20' W 119°34'0 0.0
2017-Nov-16 05:59N 34°20' W 119°34'0 0.0
2017-Nov-16 05:30N 34°20' W 119°34'0 0.0
2017-Nov-16 05:00N 34°20' W 119°34'0 0.0
2017-Nov-16 04:30N 34°20' W 119°34'0 0.0
2017-Nov-16 04:00N 34°20' W 119°34'2 4.0
2017-Nov-16 03:30N 34°21' W 119°32'5 9.3
2017-Nov-16 03:00N 34°20' W 119°37'611.4
2017-Nov-16 02:30N 34°22' W 119°31'1 1.3
2017-Nov-16 02:00N 34°23' W 119°31'1 1.0
2017-Nov-16 01:30N 34°23' W 119°30'1 1.0
2017-Nov-16 01:01N 34°23' W 119°31'611.0
2017-Nov-16 00:31N 34°20' W 119°36'510.0
2017-Nov-16 00:00N 34°23' W 119°31'3 5.1
2017-Nov-15 23:30N 34°20' W 119°33'4 7.9
2017-Nov-15 23:01N 34°20' W 119°37'3 5.8
2017-Nov-15 22:30N 34°20' W 119°34'2 3.9
2017-Nov-15 22:00N 34°20' W 119°36'0 0.0
2017-Nov-15 21:30N 34°20' W 119°36'0 0.0
2017-Nov-15 20:59N 34°20' W 119°36'0 0.0
2017-Nov-15 20:30N 34°20' W 119°36'0 0.0
2017-Nov-15 20:00N 34°20' W 119°36'4 8.3
2017-Nov-15 19:30N 34°23' W 119°39'2 4.6
2017-Nov-15 19:00N 34°24' W 119°42'0 0.0
2017-Nov-15 18:30N 34°24' W 119°42'3 5.2
2017-Nov-15 18:00N 34°24' W 119°38'4 7.9
2017-Nov-15 17:31N 34°20' W 119°38'2 3.2
2017-Nov-15 17:00N 34°20' W 119°36'2 3.8
2017-Nov-15 16:31N 34°20' W 119°34'4 7.4
2017-Nov-15 15:58N 34°23' W 119°30'3 7.6
2017-Nov-15 15:31N 34°20' W 119°33'2 4.9
2017-Nov-15 15:00N 34°20' W 119°36'611.5
2017-Nov-15 14:30N 34°23' W 119°30'0 0.0
2017-Nov-15 14:00N 34°23' W 119°30'0 0.8
2017-Nov-15 13:30N 34°23' W 119°31'2 4.2
2017-Nov-15 13:00N 34°21' W 119°32'1 2.9
2017-Nov-15 12:30N 34°20' W 119°34'0 0.0
2017-Nov-15 12:00N 34°20' W 119°34'0 0.0
2017-Nov-15 11:30N 34°20' W 119°34'0 0.0
2017-Nov-15 11:00N 34°20' W 119°34'0 0.0
2017-Nov-15 10:30N 34°20' W 119°34'0 0.0
2017-Nov-15 10:00N 34°20' W 119°34'0 0.0
2017-Nov-15 09:30N 34°20' W 119°34'0 0.0
2017-Nov-15 09:00N 34°20' W 119°34'0 0.0
2017-Nov-15 08:30N 34°20' W 119°34'0 0.0
2017-Nov-15 07:58N 34°20' W 119°34'0 0.0
2017-Nov-15 07:30N 34°20' W 119°34'0 0.0
2017-Nov-15 06:59N 34°20' W 119°34'0 0.0
2017-Nov-15 06:30N 34°20' W 119°34'0 0.0
2017-Nov-15 06:00N 34°20' W 119°34'0 0.0
2017-Nov-15 05:29N 34°20' W 119°34'0 0.0
2017-Nov-15 04:58N 34°20' W 119°34'0 0.0
2017-Nov-15 04:28N 34°20' W 119°34'2 4.3
2017-Nov-15 04:01N 34°20' W 119°36'510.1
2017-Nov-15 03:30N 34°23' W 119°31'612.4
2017-Nov-15 03:00N 34°20' W 119°37'612.3
2017-Nov-15 02:30N 34°23' W 119°31'0 0.1
2017-Nov-15 01:59N 34°23' W 119°31'0 0.7
2017-Nov-15 01:27N 34°23' W 119°30'410.1
2017-Nov-15 01:00N 34°20' W 119°34'2 4.2
2017-Nov-15 00:30N 34°21' W 119°32'3 5.0
2017-Nov-14 23:58N 34°23' W 119°30'2 4.7
2017-Nov-14 23:30N 34°21' W 119°32'5 9.4
2017-Nov-14 23:00N 34°20' W 119°37'1 1.0
2017-Nov-14 22:30N 34°20' W 119°37'0 1.0
2017-Nov-14 22:01N 34°20' W 119°36'611.0
2017-Nov-14 21:30N 34°23' W 119°31'610.3
2017-Nov-14 20:58N 34°20' W 119°36'1 1.6
2017-Nov-14 20:30N 34°20' W 119°37'0 0.5
2017-Nov-14 20:00N 34°20' W 119°37'2 3.9
2017-Nov-14 19:30N 34°20' W 119°34'3 5.6
2017-Nov-14 19:00N 34°20' W 119°38'1 1.2
2017-Nov-14 18:30N 34°20' W 119°37'0 0.4
2017-Nov-14 18:00N 34°20' W 119°37'3 5.8
2017-Nov-14 17:29N 34°20' W 119°34'3 6.0
2017-Nov-14 17:00N 34°22' W 119°31'1 2.1
2017-Nov-14 16:28N 34°23' W 119°30'3 5.9
2017-Nov-14 16:00N 34°21' W 119°32'2 3.0
2017-Nov-14 15:30N 34°20' W 119°34'2 3.3
2017-Nov-14 15:00N 34°20' W 119°36'511.0
2017-Nov-14 14:30N 34°23' W 119°30'0 0.3
2017-Nov-14 14:01N 34°23' W 119°31'0 0.3
2017-Nov-14 13:29N 34°23' W 119°31'1 2.9
2017-Nov-14 13:00N 34°22' W 119°32'2 4.8
2017-Nov-14 12:31N 34°20' W 119°34'0 0.3
2017-Nov-14 12:00N 34°20' W 119°34'0 0.0
2017-Nov-14 11:28N 34°20' W 119°34'0 0.0
2017-Nov-14 11:00N 34°20' W 119°34'0 0.0
2017-Nov-14 10:29N 34°20' W 119°34'0 0.0
2017-Nov-14 10:00N 34°20' W 119°34'0 0.0
2017-Nov-14 09:30N 34°20' W 119°34'0 0.0
2017-Nov-14 08:59N 34°20' W 119°34'0 0.0
2017-Nov-14 08:31N 34°20' W 119°34'0 0.0
2017-Nov-14 07:59N 34°20' W 119°34'0 0.0
2017-Nov-14 07:30N 34°20' W 119°34'0 0.0
2017-Nov-14 07:00N 34°20' W 119°34'0 0.0
2017-Nov-14 06:30N 34°20' W 119°34'0 0.0
2017-Nov-14 06:00N 34°20' W 119°34'0 0.0
2017-Nov-14 05:31N 34°20' W 119°34'0 0.0
2017-Nov-14 05:01N 34°20' W 119°34'0 0.0
2017-Nov-14 04:29N 34°20' W 119°34'0 0.0
2017-Nov-14 04:00N 34°20' W 119°34'0 0.0
2017-Nov-14 03:30N 34°20' W 119°34'0 0.0
2017-Nov-14 03:00N 34°20' W 119°34'4 7.2
2017-Nov-14 02:30N 34°23' W 119°31'0 0.3
2017-Nov-14 01:57N 34°23' W 119°31'0 0.5
2017-Nov-14 01:30N 34°23' W 119°31'5 9.7
2017-Nov-14 01:00N 34°20' W 119°35'1 1.9
2017-Nov-14 00:30N 34°20' W 119°36'510.6
2017-Nov-13 23:59N 34°23' W 119°31'4 7.3
2017-Nov-13 23:30N 34°20' W 119°33'3 5.7
2017-Nov-13 23:00N 34°20' W 119°37'3 6.1
2017-Nov-13 22:31N 34°17' W 119°35'3 5.0
2017-Nov-13 22:00N 34°20' W 119°36'6 0.3
2017-Nov-13 02:00N 34°22' W 119°30'1 1.5
2017-Nov-13 01:30N 34°23' W 119°30'0 0.4
2017-Nov-13 01:00N 34°23' W 119°31'4 7.4
2017-Nov-13 00:30N 34°20' W 119°33'0 0.5
2017-Nov-13 00:00N 34°20' W 119°34'0 0.3
2017-Nov-12 23:30N 34°20' W 119°34'0 0.0
2017-Nov-12 23:00N 34°20' W 119°34'0 0.0
2017-Nov-12 22:30N 34°20' W 119°34'2 4.6
2017-Nov-12 22:00N 34°20' W 119°37'2 4.6
2017-Nov-12 21:30N 34°20' W 119°34'0 0.0
2017-Nov-12 21:00N 34°20' W 119°34'0 0.0
2017-Nov-12 20:29N 34°20' W 119°34'0 0.0
2017-Nov-12 20:00N 34°20' W 119°34'0 0.0
2017-Nov-12 19:30N 34°20' W 119°34'3 6.8
2017-Nov-12 19:00N 34°20' W 119°38'2 3.3
2017-Nov-12 18:30N 34°20' W 119°36'2 3.5
2017-Nov-12 18:00N 34°20' W 119°34'0 0.0
2017-Nov-12 17:30N 34°20' W 119°34'0 0.0
2017-Nov-12 17:00N 34°20' W 119°34'0 0.4
2017-Nov-12 16:30N 34°20' W 119°34'3 5.9
2017-Nov-12 16:00N 34°20' W 119°37'0 0.9
2017-Nov-12 15:30N 34°20' W 119°37'0 0.5
2017-Nov-12 14:58N 34°20' W 119°37'611.9
2017-Nov-12 14:28N 34°23' W 119°30'0 0.4
2017-Nov-12 14:00N 34°23' W 119°31'1 1.4
2017-Nov-12 13:29N 34°22' W 119°30'0 0.0
2017-Nov-12 12:56N 34°22' W 119°30'0 0.0
2017-Nov-12 12:28N 34°22' W 119°30'0 0.0
2017-Nov-12 11:57N 34°22' W 119°30'0 0.0
2017-Nov-12 11:29N 34°22' W 119°30'0 0.0
2017-Nov-12 10:58N 34°22' W 119°30'0 0.0
2017-Nov-12 10:30N 34°22' W 119°30'0 0.0
2017-Nov-12 10:00N 34°22' W 119°30'0 0.0
2017-Nov-12 09:29N 34°22' W 119°30'0 0.0
2017-Nov-12 09:00N 34°22' W 119°30'0 0.0
2017-Nov-12 08:29N 34°22' W 119°30'0 0.0
2017-Nov-12 07:53N 34°22' W 119°30'0 0.0
2017-Nov-12 07:28N 34°22' W 119°30'0 0.0
2017-Nov-12 06:59N 34°22' W 119°30'0 0.0
2017-Nov-12 06:30N 34°22' W 119°30'0 0.0
2017-Nov-12 06:00N 34°22' W 119°30'0 0.0
2017-Nov-12 05:29N 34°22' W 119°30'0 0.0
2017-Nov-12 04:59N 34°22' W 119°30'0 0.0
2017-Nov-12 04:26N 34°22' W 119°30'0 0.0
2017-Nov-12 03:55N 34°22' W 119°30'0 0.0
2017-Nov-12 03:29N 34°22' W 119°30'0 0.0
2017-Nov-12 03:00N 34°22' W 119°30'0 0.0
2017-Nov-12 02:30N 34°22' W 119°30'0 0.0
2017-Nov-12 02:00N 34°22' W 119°30'1 1.4
2017-Nov-12 01:30N 34°23' W 119°30'0 0.9
2017-Nov-12 01:00N 34°23' W 119°31'611.6
2017-Nov-12 00:30N 34°20' W 119°37'0 0.9
2017-Nov-12 00:00N 34°20' W 119°36'0 0.0
2017-Nov-11 23:30N 34°20' W 119°36'0 0.0
2017-Nov-11 23:00N 34°20' W 119°36'0 0.0
2017-Nov-11 22:31N 34°20' W 119°36'0 0.0
2017-Nov-11 22:01N 34°20' W 119°36'0 0.0
2017-Nov-11 21:30N 34°20' W 119°36'1 1.4
2017-Nov-11 21:00N 34°21' W 119°36'610.8
2017-Nov-11 20:29N 34°24' W 119°42'0 0.0
2017-Nov-11 19:59N 34°24' W 119°42'0 0.0
2017-Nov-11 19:30N 34°24' W 119°42'0 0.4
2017-Nov-11 19:00N 34°24' W 119°41'612.0
2017-Nov-11 18:30N 34°20' W 119°36'0 0.6
2017-Nov-11 18:00N 34°20' W 119°37'2 4.6
2017-Nov-11 17:29N 34°20' W 119°34'0 0.1
2017-Nov-11 17:00N 34°20' W 119°34'1 2.6
2017-Nov-11 16:30N 34°21' W 119°32'2 4.8
2017-Nov-11 16:00N 34°23' W 119°31'612.0
2017-Nov-11 15:30N 34°20' W 119°37'0 0.9
2017-Nov-11 15:00N 34°20' W 119°38'713.0
2017-Nov-11 14:29N 34°23' W 119°31'0 0.4
2017-Nov-11 13:59N 34°23' W 119°31'1 1.6
2017-Nov-11 13:30N 34°22' W 119°30'0 0.0
2017-Nov-11 12:57N 34°22' W 119°30'0 0.0
2017-Nov-11 12:30N 34°22' W 119°30'0 0.0
2017-Nov-11 11:59N 34°22' W 119°30'0 0.0
2017-Nov-11 11:30N 34°22' W 119°30'0 0.0
2017-Nov-11 10:59N 34°22' W 119°30'0 0.0
2017-Nov-11 10:28N 34°22' W 119°30'0 0.0
2017-Nov-11 09:58N 34°22' W 119°30'0 0.0
2017-Nov-11 09:30N 34°22' W 119°30'0 0.0
2017-Nov-11 08:59N 34°22' W 119°30'0 0.0
2017-Nov-11 08:29N 34°22' W 119°30'0 0.0
2017-Nov-11 08:00N 34°22' W 119°30'0 0.0
2017-Nov-11 07:30N 34°22' W 119°30'0 0.0
2017-Nov-11 06:56N 34°22' W 119°30'0 0.0
2017-Nov-11 06:27N 34°22' W 119°30'0 0.0
2017-Nov-11 06:00N 34°22' W 119°30'0 0.0
2017-Nov-11 05:29N 34°22' W 119°30'0 0.0
2017-Nov-11 04:51N 34°22' W 119°30'0 0.0
2017-Nov-11 04:29N 34°22' W 119°30'0 0.0
2017-Nov-11 03:58N 34°22' W 119°30'0 0.0
2017-Nov-11 03:27N 34°22' W 119°30'0 0.0
2017-Nov-11 03:00N 34°22' W 119°30'1 1.3
2017-Nov-11 02:30N 34°23' W 119°30'610.8
2017-Nov-11 01:59N 34°20' W 119°36'611.5
2017-Nov-11 01:29N 34°23' W 119°30'1 0.9
2017-Nov-11 00:55N 34°23' W 119°30'0 0.0
2017-Nov-11 00:27N 34°23' W 119°30'0 0.0
2017-Nov-11 00:01N 34°23' W 119°30'2 4.4
2017-Nov-10 23:30N 34°21' W 119°32'4 8.4
2017-Nov-10 23:01N 34°20' W 119°37'2 4.0
2017-Nov-10 22:30N 34°20' W 119°34'0 0.9
2017-Nov-10 22:00N 34°20' W 119°34'0 0.0
2017-Nov-10 21:30N 34°20' W 119°34'0 0.1
2017-Nov-10 21:00N 34°20' W 119°34'2 4.4
2017-Nov-10 20:30N 34°21' W 119°32'1 2.7
2017-Nov-10 20:00N 34°23' W 119°31'611.9
2017-Nov-10 19:31N 34°20' W 119°37'1 1.8
2017-Nov-10 19:00N 34°20' W 119°36'0 1.0
2017-Nov-10 18:30N 34°20' W 119°37'0 0.9
2017-Nov-10 18:00N 34°20' W 119°37'5 9.3
2017-Nov-10 17:30N 34°20' W 119°32'2 4.0
2017-Nov-10 17:00N 34°22' W 119°31'2 3.1
2017-Nov-10 16:30N 34°23' W 119°30'510.2
2017-Nov-10 16:00N 34°20' W 119°35'2 3.4
2017-Nov-10 15:30N 34°20' W 119°37'1 1.9
2017-Nov-10 15:00N 34°20' W 119°36'610.0
2017-Nov-10 14:27N 34°23' W 119°31'0 0.1
2017-Nov-10 13:58N 34°23' W 119°31'0 0.1
2017-Nov-10 13:29N 34°23' W 119°31'4 8.9
2017-Nov-10 13:01N 34°20' W 119°34'0 0.7
2017-Nov-10 12:30N 34°20' W 119°34'0 0.0
2017-Nov-10 12:00N 34°20' W 119°34'0 0.0
2017-Nov-10 11:30N 34°20' W 119°34'0 0.0
2017-Nov-10 11:00N 34°20' W 119°34'0 0.0
2017-Nov-10 10:30N 34°20' W 119°34'0 0.0
2017-Nov-10 10:00N 34°20' W 119°34'0 0.1
2017-Nov-10 09:30N 34°20' W 119°34'0 0.1
2017-Nov-10 09:00N 34°20' W 119°34'0 0.0
2017-Nov-10 08:30N 34°20' W 119°34'0 0.1
2017-Nov-10 08:00N 34°20' W 119°34'0 0.1
2017-Nov-10 07:29N 34°20' W 119°34'0 0.1
2017-Nov-10 07:00N 34°20' W 119°34'0 0.0
2017-Nov-10 06:27N 34°20' W 119°34'0 0.1
2017-Nov-10 06:00N 34°20' W 119°34'0 0.0
2017-Nov-10 05:30N 34°20' W 119°34'0 0.1
2017-Nov-10 05:00N 34°20' W 119°34'2 4.1
2017-Nov-10 04:30N 34°20' W 119°36'1 2.3
2017-Nov-10 04:00N 34°19' W 119°36'2 3.1
2017-Nov-10 03:30N 34°17' W 119°35'3 5.9
2017-Nov-10 03:00N 34°20' W 119°37'611.2
2017-Nov-10 02:30N 34°23' W 119°31'1 1.2
2017-Nov-10 02:00N 34°23' W 119°30'0 0.2
2017-Nov-10 01:29N 34°23' W 119°31'3 5.4
2017-Nov-10 01:00N 34°21' W 119°32'3 5.0
2017-Nov-10 00:29N 34°20' W 119°35'4 8.0
2017-Nov-09 23:58N 34°22' W 119°31'0 0.4
2017-Nov-09 23:30N 34°22' W 119°31'611.4
2017-Nov-09 23:00N 34°20' W 119°38'0 0.2
2017-Nov-09 22:29N 34°20' W 119°38'0 0.4
2017-Nov-09 22:00N 34°20' W 119°38'1 2.2
2017-Nov-09 21:29N 34°20' W 119°37'3 5.8
2017-Nov-09 21:00N 34°20' W 119°33'4 7.4
2017-Nov-09 20:30N 34°23' W 119°30'5 9.0
2017-Nov-09 20:00N 34°20' W 119°35'1 2.3
2017-Nov-09 19:30N 34°20' W 119°36'2 3.7
2017-Nov-09 19:00N 34°20' W 119°34'3 6.0
2017-Nov-09 18:30N 34°20' W 119°37'1 1.9
2017-Nov-09 18:00N 34°20' W 119°36'1 2.1
2017-Nov-09 17:30N 34°20' W 119°38'2 3.3
2017-Nov-09 17:00N 34°20' W 119°36'510.4
2017-Nov-09 16:30N 34°23' W 119°30'0 0.0
2017-Nov-09 15:57N 34°23' W 119°30'3 6.8
2017-Nov-09 15:29N 34°20' W 119°32'3 6.5
2017-Nov-09 15:00N 34°20' W 119°36'610.7
2017-Nov-09 14:28N 34°23' W 119°30'0 0.6
2017-Nov-09 14:00N 34°23' W 119°31'0 0.5
2017-Nov-09 13:26N 34°23' W 119°30'512.2
2017-Nov-09 13:00N 34°20' W 119°35'1 2.5
2017-Nov-09 12:29N 34°20' W 119°34'0 0.0
2017-Nov-09 12:00N 34°20' W 119°34'0 0.0
2017-Nov-09 11:30N 34°20' W 119°34'0 0.0
2017-Nov-09 10:59N 34°20' W 119°34'0 0.0
2017-Nov-09 10:30N 34°20' W 119°34'0 0.0
2017-Nov-09 10:00N 34°20' W 119°34'0 0.0
2017-Nov-09 09:29N 34°20' W 119°34'0 0.0
2017-Nov-09 08:59N 34°20' W 119°34'0 0.0
2017-Nov-09 08:30N 34°20' W 119°34'  
Track history (hours):
 
Tides and Currents Weather Stations Pressure Air Temp Water Temp Dewpoint Dewpoint Depression Visibility Wind Speed Wind Dir Waves Ship Positions

Alan T

Owner: SO CAL SHIP SERVICES, INC, TERMINAL ISLAND, CA. More information available from US FCC via Universal Licensing System and Coast Guard Vessel Documentation Center.

Last reported at 2017-Nov-19 08:00 UTC. Time now 2017-Nov-19 08:21 UTC.
Position N 34°20' W 119°34'.

Length 30 m; draft 2.5 m.

Type: Ship (hazmat cat B). MMSI: 367104060.

Date/timePositionNaut miles runAvg speedWind from/ knotsBaromVisibWave heightAir tempDewpointWater temp
2017-Nov-19 08:00N 34°20' W 119°34'0 0.0
2017-Nov-19 07:30N 34°20' W 119°34'0 0.0
2017-Nov-19 07:00N 34°20' W 119°34'0 0.0
2017-Nov-19 06:30N 34°20' W 119°34'0 0.0
2017-Nov-19 06:00N 34°20' W 119°34'0 0.0
2017-Nov-19 05:30N 34°20' W 119°34'0 0.0
2017-Nov-19 05:00N 34°20' W 119°34'0 0.0
2017-Nov-19 04:29N 34°20' W 119°34'0 0.0
2017-Nov-19 04:00N 34°20' W 119°34'0 0.0
2017-Nov-19 03:29N 34°20' W 119°34'0 0.0
2017-Nov-19 03:00N 34°20' W 119°34'2 3.6
2017-Nov-19 02:27N 34°21' W 119°32'2 4.3
2017-Nov-19 02:00N 34°23' W 119°31'1 1.3
2017-Nov-19 01:30N 34°22' W 119°30'0 0.0
2017-Nov-19 01:00N 34°22' W 119°30'3 6.3
2017-Nov-19 00:31N 34°21' W 119°33'3 5.7
2017-Nov-19 00:00N 34°20' W 119°36'0 0.2
2017-Nov-18 23:30N 34°20' W 119°36'1 1.0
2017-Nov-18 23:00N 34°20' W 119°37'3 5.9
2017-Nov-18 22:30N 34°23' W 119°37'4 7.5
2017-Nov-18 21:59N 34°24' W 119°42'0 0.0
2017-Nov-18 21:30N 34°24' W 119°42'0 0.0
2017-Nov-18 21:00N 34°24' W 119°42'0 0.0
2017-Nov-18 20:28N 34°24' W 119°42'4 9.0
2017-Nov-18 20:00N 34°22' W 119°37'2 4.6
2017-Nov-18 19:28N 34°20' W 119°36'510.5
2017-Nov-18 19:00N 34°22' W 119°31'5 9.9
2017-Nov-18 18:31N 34°20' W 119°36'611.1
2017-Nov-18 17:58N 34°20' W 119°29'3 7.1
2017-Nov-18 17:30N 34°20' W 119°33'3 5.1
2017-Nov-18 16:59N 34°20' W 119°36'0 0.9
2017-Nov-18 16:30N 34°20' W 119°37'3 5.7
2017-Nov-18 16:00N 34°20' W 119°33'2 4.5
2017-Nov-18 15:30N 34°22' W 119°32'510.1
2017-Nov-18 15:00N 34°20' W 119°37'612.4
2017-Nov-18 14:31N 34°23' W 119°31'0 0.6
2017-Nov-18 13:59N 34°23' W 119°30'1 1.4
2017-Nov-18 13:30N 34°22' W 119°30'0 0.0
2017-Nov-18 13:00N 34°22' W 119°30'0 0.0
2017-Nov-18 12:28N 34°22' W 119°30'0 0.0
2017-Nov-18 11:58N 34°22' W 119°30'0 0.0
2017-Nov-18 11:28N 34°22' W 119°30'0 0.0
2017-Nov-18 10:59N 34°22' W 119°30'0 0.0
2017-Nov-18 10:27N 34°22' W 119°30'0 0.0
2017-Nov-18 09:59N 34°22' W 119°30'0 0.0
2017-Nov-18 09:23N 34°22' W 119°30'0 0.0
2017-Nov-18 08:56N 34°22' W 119°30'0 0.0
2017-Nov-18 08:25N 34°22' W 119°30'0 0.0
2017-Nov-18 08:00N 34°22' W 119°30'0 0.0
2017-Nov-18 07:30N 34°22' W 119°30'0 0.0
2017-Nov-18 07:00N 34°22' W 119°30'0 0.0
2017-Nov-18 06:29N 34°22' W 119°30'0 0.0
2017-Nov-18 05:59N 34°22' W 119°30'0 0.0
2017-Nov-18 05:30N 34°22' W 119°30'0 0.0
2017-Nov-18 04:57N 34°22' W 119°30'0 0.0
2017-Nov-18 04:28N 34°22' W 119°30'0 0.0
2017-Nov-18 03:57N 34°22' W 119°30'0 0.0
2017-Nov-18 03:29N 34°22' W 119°30'0 0.0
2017-Nov-18 03:00N 34°22' W 119°30'0 0.0
2017-Nov-18 02:30N 34°22' W 119°30'0 0.0
2017-Nov-18 01:56N 34°22' W 119°30'0 0.1
2017-Nov-18 01:26N 34°23' W 119°30'0 0.0
2017-Nov-18 01:00N 34°23' W 119°30'0 0.0
2017-Nov-18 00:30N 34°23' W 119°30'0 0.0
2017-Nov-18 00:00N 34°22' W 119°30'5 8.9
2017-Nov-17 23:29N 34°20' W 119°35'0 0.4
2017-Nov-17 23:00N 34°20' W 119°35'1 1.7
2017-Nov-17 22:30N 34°20' W 119°34'0 0.0
2017-Nov-17 22:00N 34°20' W 119°34'0 0.0
2017-Nov-17 21:30N 34°20' W 119°34'0 0.0
2017-Nov-17 21:00N 34°20' W 119°34'4 7.5
2017-Nov-17 20:29N 34°23' W 119°30'613.0
2017-Nov-17 20:00N 34°20' W 119°37'0 0.4
2017-Nov-17 19:30N 34°20' W 119°37'3 5.7
2017-Nov-17 19:00N 34°20' W 119°34'0 0.0
2017-Nov-17 18:30N 34°20' W 119°34'3 5.0
2017-Nov-17 17:59N 34°20' W 119°37'0 0.0
2017-Nov-17 17:30N 34°20' W 119°37'0 0.9
2017-Nov-17 17:00N 34°20' W 119°37'510.7
2017-Nov-17 16:31N 34°22' W 119°31'1 2.5
2017-Nov-17 16:00N 34°23' W 119°30'4 7.3
2017-Nov-17 15:29N 34°20' W 119°33'3 6.7
2017-Nov-17 15:01N 34°20' W 119°37'612.7
2017-Nov-17 14:30N 34°23' W 119°30'0 0.4
2017-Nov-17 14:00N 34°23' W 119°31'0 0.5
2017-Nov-17 13:29N 34°23' W 119°30'3 7.0
2017-Nov-17 13:00N 34°20' W 119°33'1 1.6
2017-Nov-17 12:29N 34°20' W 119°34'0 0.0
2017-Nov-17 12:00N 34°20' W 119°34'0 0.0
2017-Nov-17 11:30N 34°20' W 119°34'0 0.0
2017-Nov-17 10:57N 34°20' W 119°34'0 0.0
2017-Nov-17 10:30N 34°20' W 119°34'0 0.0
2017-Nov-17 10:00N 34°20' W 119°34'0 0.0
2017-Nov-17 09:30N 34°20' W 119°34'0 0.0
2017-Nov-17 09:00N 34°20' W 119°34'0 0.0
2017-Nov-17 08:30N 34°20' W 119°34'0 0.0
2017-Nov-17 07:59N 34°20' W 119°34'0 0.0
2017-Nov-17 07:30N 34°20' W 119°34'0 0.0
2017-Nov-17 06:57N 34°20' W 119°34'0 0.0
2017-Nov-17 06:30N 34°20' W 119°34'0 0.0
2017-Nov-17 06:00N 34°20' W 119°34'0 0.0
2017-Nov-17 05:30N 34°20' W 119°34'2 4.1
2017-Nov-17 05:00N 34°20' W 119°36'5 8.6
2017-Nov-17 04:22N 34°23' W 119°31'0 0.1
2017-Nov-17 03:53N 34°23' W 119°31'0 1.0
2017-Nov-17 03:30N 34°23' W 119°30'713.7
2017-Nov-17 03:01N 34°20' W 119°38'611.5
2017-Nov-17 02:29N 34°22' W 119°31'1 1.0
2017-Nov-17 01:59N 34°23' W 119°31'0 0.5
2017-Nov-17 01:30N 34°23' W 119°31'611.4
2017-Nov-17 01:00N 34°20' W 119°36'2 3.7
2017-Nov-17 00:30N 34°20' W 119°34'4 8.2
2017-Nov-16 23:59N 34°23' W 119°30'5 9.5
2017-Nov-16 23:30N 34°20' W 119°35'2 4.8
2017-Nov-16 23:00N 34°20' W 119°37'1 1.6
2017-Nov-16 22:30N 34°20' W 119°36'2 4.4
2017-Nov-16 22:00N 34°20' W 119°34'3 5.1
2017-Nov-16 21:30N 34°20' W 119°37'0 0.9
2017-Nov-16 21:00N 34°20' W 119°36'0 0.8
2017-Nov-16 20:30N 34°20' W 119°37'2 5.0
2017-Nov-16 20:00N 34°20' W 119°34'4 7.0
2017-Nov-16 19:30N 34°20' W 119°38'0 1.0
2017-Nov-16 19:00N 34°20' W 119°37'0 0.6
2017-Nov-16 18:30N 34°20' W 119°38'3 6.4
2017-Nov-16 17:59N 34°20' W 119°34'0 0.0
2017-Nov-16 17:30N 34°20' W 119°34'0 0.0
2017-Nov-16 17:00N 34°20' W 119°34'4 8.2
2017-Nov-16 16:31N 34°23' W 119°30'0 0.0
2017-Nov-16 16:00N 34°23' W 119°30'3 6.7
2017-Nov-16 15:31N 34°20' W 119°33'3 5.6
2017-Nov-16 15:00N 34°20' W 119°36'611.2
2017-Nov-16 14:30N 34°23' W 119°30'0 0.5
2017-Nov-16 14:00N 34°23' W 119°31'0 0.3
2017-Nov-16 13:30N 34°23' W 119°31'611.2
2017-Nov-16 13:00N 34°20' W 119°36'2 4.2
2017-Nov-16 12:30N 34°20' W 119°34'0 0.0
2017-Nov-16 11:59N 34°20' W 119°34'0 0.3
2017-Nov-16 11:31N 34°20' W 119°34'3 6.4
2017-Nov-16 10:58N 34°20' W 119°38'0 0.0
2017-Nov-16 10:28N 34°20' W 119°38'0 1.0
2017-Nov-16 10:00N 34°20' W 119°37'0 0.1
2017-Nov-16 09:30N 34°20' W 119°37'3 6.0
2017-Nov-16 09:00N 34°20' W 119°34'0 0.0
2017-Nov-16 08:28N 34°20' W 119°34'0 0.3
2017-Nov-16 08:00N 34°20' W 119°34'0 0.0
2017-Nov-16 07:29N 34°20' W 119°34'0 0.0
2017-Nov-16 07:00N 34°20' W 119°34'0 0.0
2017-Nov-16 06:28N 34°20' W 119°34'0 0.0
2017-Nov-16 05:59N 34°20' W 119°34'0 0.0
2017-Nov-16 05:30N 34°20' W 119°34'0 0.0
2017-Nov-16 05:00N 34°20' W 119°34'0 0.0
2017-Nov-16 04:30N 34°20' W 119°34'0 0.0
2017-Nov-16 04:00N 34°20' W 119°34'2 4.0
2017-Nov-16 03:30N 34°21' W 119°32'5 9.3
2017-Nov-16 03:00N 34°20' W 119°37'611.4
2017-Nov-16 02:30N 34°22' W 119°31'1 1.3
2017-Nov-16 02:00N 34°23' W 119°31'1 1.0
2017-Nov-16 01:30N 34°23' W 119°30'1 1.0
2017-Nov-16 01:01N 34°23' W 119°31'611.0
2017-Nov-16 00:31N 34°20' W 119°36'510.0
2017-Nov-16 00:00N 34°23' W 119°31'3 5.1
2017-Nov-15 23:30N 34°20' W 119°33'4 7.9
2017-Nov-15 23:01N 34°20' W 119°37'3 5.8
2017-Nov-15 22:30N 34°20' W 119°34'2 3.9
2017-Nov-15 22:00N 34°20' W 119°36'0 0.0
2017-Nov-15 21:30N 34°20' W 119°36'0 0.0
2017-Nov-15 20:59N 34°20' W 119°36'0 0.0
2017-Nov-15 20:30N 34°20' W 119°36'0 0.0
2017-Nov-15 20:00N 34°20' W 119°36'4 8.3
2017-Nov-15 19:30N 34°23' W 119°39'2 4.6
2017-Nov-15 19:00N 34°24' W 119°42'0 0.0
2017-Nov-15 18:30N 34°24' W 119°42'3 5.2
2017-Nov-15 18:00N 34°24' W 119°38'4 7.9
2017-Nov-15 17:31N 34°20' W 119°38'2 3.2
2017-Nov-15 17:00N 34°20' W 119°36'2 3.8
2017-Nov-15 16:31N 34°20' W 119°34'4 7.4
2017-Nov-15 15:58N 34°23' W 119°30'3 7.6
2017-Nov-15 15:31N 34°20' W 119°33'2 4.9
2017-Nov-15 15:00N 34°20' W 119°36'611.5
2017-Nov-15 14:30N 34°23' W 119°30'0 0.0
2017-Nov-15 14:00N 34°23' W 119°30'0 0.8
2017-Nov-15 13:30N 34°23' W 119°31'2 4.2
2017-Nov-15 13:00N 34°21' W 119°32'1 2.9
2017-Nov-15 12:30N 34°20' W 119°34'0 0.0
2017-Nov-15 12:00N 34°20' W 119°34'0 0.0
2017-Nov-15 11:30N 34°20' W 119°34'0 0.0
2017-Nov-15 11:00N 34°20' W 119°34'0 0.0
2017-Nov-15 10:30N 34°20' W 119°34'0 0.0
2017-Nov-15 10:00N 34°20' W 119°34'0 0.0
2017-Nov-15 09:30N 34°20' W 119°34'0 0.0
2017-Nov-15 09:00N 34°20' W 119°34'0 0.0
2017-Nov-15 08:30N 34°20' W 119°34'0 0.0
2017-Nov-15 07:58N 34°20' W 119°34'0 0.0
2017-Nov-15 07:30N 34°20' W 119°34'0 0.0
2017-Nov-15 06:59N 34°20' W 119°34'0 0.0
2017-Nov-15 06:30N 34°20' W 119°34'0 0.0
2017-Nov-15 06:00N 34°20' W 119°34'0 0.0
2017-Nov-15 05:29N 34°20' W 119°34'0 0.0
2017-Nov-15 04:58N 34°20' W 119°34'0 0.0
2017-Nov-15 04:28N 34°20' W 119°34'2 4.3
2017-Nov-15 04:01N 34°20' W 119°36'510.1
2017-Nov-15 03:30N 34°23' W 119°31'612.4
2017-Nov-15 03:00N 34°20' W 119°37'612.3
2017-Nov-15 02:30N 34°23' W 119°31'0 0.1
2017-Nov-15 01:59N 34°23' W 119°31'0 0.7
2017-Nov-15 01:27N 34°23' W 119°30'410.1
2017-Nov-15 01:00N 34°20' W 119°34'2 4.2
2017-Nov-15 00:30N 34°21' W 119°32'3 5.0
2017-Nov-14 23:58N 34°23' W 119°30'2 4.7
2017-Nov-14 23:30N 34°21' W 119°32'5 9.4
2017-Nov-14 23:00N 34°20' W 119°37'1 1.0
2017-Nov-14 22:30N 34°20' W 119°37'0 1.0
2017-Nov-14 22:01N 34°20' W 119°36'611.0
2017-Nov-14 21:30N 34°23' W 119°31'610.3
2017-Nov-14 20:58N 34°20' W 119°36'1 1.6
2017-Nov-14 20:30N 34°20' W 119°37'0 0.5
2017-Nov-14 20:00N 34°20' W 119°37'2 3.9
2017-Nov-14 19:30N 34°20' W 119°34'3 5.6
2017-Nov-14 19:00N 34°20' W 119°38'1 1.2
2017-Nov-14 18:30N 34°20' W 119°37'0 0.4
2017-Nov-14 18:00N 34°20' W 119°37'3 5.8
2017-Nov-14 17:29N 34°20' W 119°34'3 6.0
2017-Nov-14 17:00N 34°22' W 119°31'1 2.1
2017-Nov-14 16:28N 34°23' W 119°30'3 5.9
2017-Nov-14 16:00N 34°21' W 119°32'2 3.0
2017-Nov-14 15:30N 34°20' W 119°34'2 3.3
2017-Nov-14 15:00N 34°20' W 119°36'511.0
2017-Nov-14 14:30N 34°23' W 119°30'0 0.3
2017-Nov-14 14:01N 34°23' W 119°31'0 0.3
2017-Nov-14 13:29N 34°23' W 119°31'1 2.9
2017-Nov-14 13:00N 34°22' W 119°32'2 4.8
2017-Nov-14 12:31N 34°20' W 119°34'0 0.3
2017-Nov-14 12:00N 34°20' W 119°34'0 0.0
2017-Nov-14 11:28N 34°20' W 119°34'0 0.0
2017-Nov-14 11:00N 34°20' W 119°34'0 0.0
2017-Nov-14 10:29N 34°20' W 119°34'0 0.0
2017-Nov-14 10:00N 34°20' W 119°34'0 0.0
2017-Nov-14 09:30N 34°20' W 119°34'0 0.0
2017-Nov-14 08:59N 34°20' W 119°34'0 0.0
2017-Nov-14 08:31N 34°20' W 119°34'0 0.0
2017-Nov-14 07:59N 34°20' W 119°34'0 0.0
2017-Nov-14 07:30N 34°20' W 119°34'0 0.0
2017-Nov-14 07:00N 34°20' W 119°34'0 0.0
2017-Nov-14 06:30N 34°20' W 119°34'0 0.0
2017-Nov-14 06:00N 34°20' W 119°34'0 0.0
2017-Nov-14 05:31N 34°20' W 119°34'0 0.0
2017-Nov-14 05:01N 34°20' W 119°34'0 0.0
2017-Nov-14 04:29N 34°20' W 119°34'0 0.0
2017-Nov-14 04:00N 34°20' W 119°34'0 0.0
2017-Nov-14 03:30N 34°20' W 119°34'0 0.0
2017-Nov-14 03:00N 34°20' W 119°34'4 7.2
2017-Nov-14 02:30N 34°23' W 119°31'0 0.3
2017-Nov-14 01:57N 34°23' W 119°31'0 0.5
2017-Nov-14 01:30N 34°23' W 119°31'5 9.7
2017-Nov-14 01:00N 34°20' W 119°35'1 1.9
2017-Nov-14 00:30N 34°20' W 119°36'510.6
2017-Nov-13 23:59N 34°23' W 119°31'4 7.3
2017-Nov-13 23:30N 34°20' W 119°33'3 5.7
2017-Nov-13 23:00N 34°20' W 119°37'3 6.1
2017-Nov-13 22:31N 34°17' W 119°35'3 5.0
2017-Nov-13 22:00N 34°20' W 119°36'6 0.3
2017-Nov-13 02:00N 34°22' W 119°30'1 1.5
2017-Nov-13 01:30N 34°23' W 119°30'0 0.4
2017-Nov-13 01:00N 34°23' W 119°31'4 7.4
2017-Nov-13 00:30N 34°20' W 119°33'0 0.5
2017-Nov-13 00:00N 34°20' W 119°34'0 0.3
2017-Nov-12 23:30N 34°20' W 119°34'0 0.0
2017-Nov-12 23:00N 34°20' W 119°34'0 0.0
2017-Nov-12 22:30N 34°20' W 119°34'2 4.6
2017-Nov-12 22:00N 34°20' W 119°37'2 4.6
2017-Nov-12 21:30N 34°20' W 119°34'0 0.0
2017-Nov-12 21:00N 34°20' W 119°34'0 0.0
2017-Nov-12 20:29N 34°20' W 119°34'0 0.0
2017-Nov-12 20:00N 34°20' W 119°34'0 0.0
2017-Nov-12 19:30N 34°20' W 119°34'3 6.8
2017-Nov-12 19:00N 34°20' W 119°38'2 3.3
2017-Nov-12 18:30N 34°20' W 119°36'2 3.5
2017-Nov-12 18:00N 34°20' W 119°34'0 0.0
2017-Nov-12 17:30N 34°20' W 119°34'0 0.0
2017-Nov-12 17:00N 34°20' W 119°34'0 0.4
2017-Nov-12 16:30N 34°20' W 119°34'3 5.9
2017-Nov-12 16:00N 34°20' W 119°37'0 0.9
2017-Nov-12 15:30N 34°20' W 119°37'0 0.5
2017-Nov-12 14:58N 34°20' W 119°37'611.9
2017-Nov-12 14:28N 34°23' W 119°30'0 0.4
2017-Nov-12 14:00N 34°23' W 119°31'1 1.4
2017-Nov-12 13:29N 34°22' W 119°30'0 0.0
2017-Nov-12 12:56N 34°22' W 119°30'0 0.0
2017-Nov-12 12:28N 34°22' W 119°30'0 0.0
2017-Nov-12 11:57N 34°22' W 119°30'0 0.0
2017-Nov-12 11:29N 34°22' W 119°30'0 0.0
2017-Nov-12 10:58N 34°22' W 119°30'0 0.0
2017-Nov-12 10:30N 34°22' W 119°30'0 0.0
2017-Nov-12 10:00N 34°22' W 119°30'0 0.0
2017-Nov-12 09:29N 34°22' W 119°30'0 0.0
2017-Nov-12 09:00N 34°22' W 119°30'0 0.0
2017-Nov-12 08:29N 34°22' W 119°30'0 0.0
2017-Nov-12 07:53N 34°22' W 119°30'0 0.0
2017-Nov-12 07:28N 34°22' W 119°30'0 0.0
2017-Nov-12 06:59N 34°22' W 119°30'0 0.0
2017-Nov-12 06:30N 34°22' W 119°30'0 0.0
2017-Nov-12 06:00N 34°22' W 119°30'0 0.0
2017-Nov-12 05:29N 34°22' W 119°30'0 0.0
2017-Nov-12 04:59N 34°22' W 119°30'0 0.0
2017-Nov-12 04:26N 34°22' W 119°30'0 0.0
2017-Nov-12 03:55N 34°22' W 119°30'0 0.0
2017-Nov-12 03:29N 34°22' W 119°30'0 0.0
2017-Nov-12 03:00N 34°22' W 119°30'0 0.0
2017-Nov-12 02:30N 34°22' W 119°30'0 0.0
2017-Nov-12 02:00N 34°22' W 119°30'1 1.4
2017-Nov-12 01:30N 34°23' W 119°30'0 0.9
2017-Nov-12 01:00N 34°23' W 119°31'611.6
2017-Nov-12 00:30N 34°20' W 119°37'0 0.9
2017-Nov-12 00:00N 34°20' W 119°36'0 0.0
2017-Nov-11 23:30N 34°20' W 119°36'0 0.0
2017-Nov-11 23:00N 34°20' W 119°36'0 0.0
2017-Nov-11 22:31N 34°20' W 119°36'0 0.0
2017-Nov-11 22:01N 34°20' W 119°36'0 0.0
2017-Nov-11 21:30N 34°20' W 119°36'1 1.4
2017-Nov-11 21:00N 34°21' W 119°36'610.8
2017-Nov-11 20:29N 34°24' W 119°42'0 0.0
2017-Nov-11 19:59N 34°24' W 119°42'0 0.0
2017-Nov-11 19:30N 34°24' W 119°42'0 0.4
2017-Nov-11 19:00N 34°24' W 119°41'612.0
2017-Nov-11 18:30N 34°20' W 119°36'0 0.6
2017-Nov-11 18:00N 34°20' W 119°37'2 4.6
2017-Nov-11 17:29N 34°20' W 119°34'0 0.1
2017-Nov-11 17:00N 34°20' W 119°34'1 2.6
2017-Nov-11 16:30N 34°21' W 119°32'2 4.8
2017-Nov-11 16:00N 34°23' W 119°31'612.0
2017-Nov-11 15:30N 34°20' W 119°37'0 0.9
2017-Nov-11 15:00N 34°20' W 119°38'713.0
2017-Nov-11 14:29N 34°23' W 119°31'0 0.4
2017-Nov-11 13:59N 34°23' W 119°31'1 1.6
2017-Nov-11 13:30N 34°22' W 119°30'0 0.0
2017-Nov-11 12:57N 34°22' W 119°30'0 0.0
2017-Nov-11 12:30N 34°22' W 119°30'0 0.0
2017-Nov-11 11:59N 34°22' W 119°30'0 0.0
2017-Nov-11 11:30N 34°22' W 119°30'0 0.0
2017-Nov-11 10:59N 34°22' W 119°30'0 0.0
2017-Nov-11 10:28N 34°22' W 119°30'0 0.0
2017-Nov-11 09:58N 34°22' W 119°30'0 0.0
2017-Nov-11 09:30N 34°22' W 119°30'0 0.0
2017-Nov-11 08:59N 34°22' W 119°30'0 0.0
2017-Nov-11 08:29N 34°22' W 119°30'0 0.0
2017-Nov-11 08:00N 34°22' W 119°30'0 0.0
2017-Nov-11 07:30N 34°22' W 119°30'0 0.0
2017-Nov-11 06:56N 34°22' W 119°30'0 0.0
2017-Nov-11 06:27N 34°22' W 119°30'0 0.0
2017-Nov-11 06:00N 34°22' W 119°30'0 0.0
2017-Nov-11 05:29N 34°22' W 119°30'0 0.0
2017-Nov-11 04:51N 34°22' W 119°30'0 0.0
2017-Nov-11 04:29N 34°22' W 119°30'0 0.0
2017-Nov-11 03:58N 34°22' W 119°30'0 0.0
2017-Nov-11 03:27N 34°22' W 119°30'0 0.0
2017-Nov-11 03:00N 34°22' W 119°30'1 1.3
2017-Nov-11 02:30N 34°23' W 119°30'610.8
2017-Nov-11 01:59N 34°20' W 119°36'611.5
2017-Nov-11 01:29N 34°23' W 119°30'1 0.9
2017-Nov-11 00:55N 34°23' W 119°30'0 0.0
2017-Nov-11 00:27N 34°23' W 119°30'0 0.0
2017-Nov-11 00:01N 34°23' W 119°30'2 4.4
2017-Nov-10 23:30N 34°21' W 119°32'4 8.4
2017-Nov-10 23:01N 34°20' W 119°37'2 4.0
2017-Nov-10 22:30N 34°20' W 119°34'0 0.9
2017-Nov-10 22:00N 34°20' W 119°34'0 0.0
2017-Nov-10 21:30N 34°20' W 119°34'0 0.1
2017-Nov-10 21:00N 34°20' W 119°34'2 4.4
2017-Nov-10 20:30N 34°21' W 119°32'1 2.7
2017-Nov-10 20:00N 34°23' W 119°31'611.9
2017-Nov-10 19:31N 34°20' W 119°37'1 1.8
2017-Nov-10 19:00N 34°20' W 119°36'0 1.0
2017-Nov-10 18:30N 34°20' W 119°37'0 0.9
2017-Nov-10 18:00N 34°20' W 119°37'5 9.3
2017-Nov-10 17:30N 34°20' W 119°32'2 4.0
2017-Nov-10 17:00N 34°22' W 119°31'2 3.1
2017-Nov-10 16:30N 34°23' W 119°30'510.2
2017-Nov-10 16:00N 34°20' W 119°35'2 3.4
2017-Nov-10 15:30N 34°20' W 119°37'1 1.9
2017-Nov-10 15:00N 34°20' W 119°36'610.0
2017-Nov-10 14:27N 34°23' W 119°31'0 0.1
2017-Nov-10 13:58N 34°23' W 119°31'0 0.1
2017-Nov-10 13:29N 34°23' W 119°31'4 8.9
2017-Nov-10 13:01N 34°20' W 119°34'0 0.7
2017-Nov-10 12:30N 34°20' W 119°34'0 0.0
2017-Nov-10 12:00N 34°20' W 119°34'0 0.0
2017-Nov-10 11:30N 34°20' W 119°34'0 0.0
2017-Nov-10 11:00N 34°20' W 119°34'0 0.0
2017-Nov-10 10:30N 34°20' W 119°34'0 0.0
2017-Nov-10 10:00N 34°20' W 119°34'0 0.1
2017-Nov-10 09:30N 34°20' W 119°34'0 0.1
2017-Nov-10 09:00N 34°20' W 119°34'0 0.0
2017-Nov-10 08:30N 34°20' W 119°34'0 0.1
2017-Nov-10 08:00N 34°20' W 119°34'0 0.1
2017-Nov-10 07:29N 34°20' W 119°34'0 0.1
2017-Nov-10 07:00N 34°20' W 119°34'0 0.0
2017-Nov-10 06:27N 34°20' W 119°34'0 0.1
2017-Nov-10 06:00N 34°20' W 119°34'0 0.0
2017-Nov-10 05:30N 34°20' W 119°34'0 0.1
2017-Nov-10 05:00N 34°20' W 119°34'2 4.1
2017-Nov-10 04:30N 34°20' W 119°36'1 2.3
2017-Nov-10 04:00N 34°19' W 119°36'2 3.1
2017-Nov-10 03:30N 34°17' W 119°35'3 5.9
2017-Nov-10 03:00N 34°20' W 119°37'611.2
2017-Nov-10 02:30N 34°23' W 119°31'1 1.2
2017-Nov-10 02:00N 34°23' W 119°30'0 0.2
2017-Nov-10 01:29N 34°23' W 119°31'3 5.4
2017-Nov-10 01:00N 34°21' W 119°32'3 5.0
2017-Nov-10 00:29N 34°20' W 119°35'4 8.0
2017-Nov-09 23:58N 34°22' W 119°31'0 0.4
2017-Nov-09 23:30N 34°22' W 119°31'611.4
2017-Nov-09 23:00N 34°20' W 119°38'0 0.2
2017-Nov-09 22:29N 34°20' W 119°38'0 0.4
2017-Nov-09 22:00N 34°20' W 119°38'1 2.2
2017-Nov-09 21:29N 34°20' W 119°37'3 5.8
2017-Nov-09 21:00N 34°20' W 119°33'4 7.4
2017-Nov-09 20:30N 34°23' W 119°30'5 9.0
2017-Nov-09 20:00N 34°20' W 119°35'1 2.3
2017-Nov-09 19:30N 34°20' W 119°36'2 3.7
2017-Nov-09 19:00N 34°20' W 119°34'3 6.0
2017-Nov-09 18:30N 34°20' W 119°37'1 1.9
2017-Nov-09 18:00N 34°20' W 119°36'1 2.1
2017-Nov-09 17:30N 34°20' W 119°38'2 3.3
2017-Nov-09 17:00N 34°20' W 119°36'510.4
2017-Nov-09 16:30N 34°23' W 119°30'0 0.0
2017-Nov-09 15:57N 34°23' W 119°30'3 6.8
2017-Nov-09 15:29N 34°20' W 119°32'3 6.5
2017-Nov-09 15:00N 34°20' W 119°36'610.7
2017-Nov-09 14:28N 34°23' W 119°30'0 0.6
2017-Nov-09 14:00N 34°23' W 119°31'0 0.5
2017-Nov-09 13:26N 34°23' W 119°30'512.2
2017-Nov-09 13:00N 34°20' W 119°35'1 2.5
2017-Nov-09 12:29N 34°20' W 119°34'0 0.0
2017-Nov-09 12:00N 34°20' W 119°34'0 0.0
2017-Nov-09 11:30N 34°20' W 119°34'0 0.0
2017-Nov-09 10:59N 34°20' W 119°34'0 0.0
2017-Nov-09 10:30N 34°20' W 119°34'0 0.0
2017-Nov-09 10:00N 34°20' W 119°34'0 0.0
2017-Nov-09 09:29N 34°20' W 119°34'0 0.0
2017-Nov-09 08:59N 34°20' W 119°34'0 0.0
2017-Nov-09 08:30N 34°20' W 119°34'  

Dump ship's entire track history